sensor_id;sensor_type;location;lat;lon;timestamp;P1;durP1;ratioP1;P2;durP2;ratioP2
40591;SDS011;26301;42.832;23.918;2023-05-07T00:01:58;9.88;;;6.13;;
40591;SDS011;26301;42.832;23.918;2023-05-07T00:04:25;10.98;;;6.35;;
40591;SDS011;26301;42.832;23.918;2023-05-07T00:06:53;7.25;;;6.07;;
40591;SDS011;26301;42.832;23.918;2023-05-07T00:09:19;7.78;;;5.88;;
40591;SDS011;26301;42.832;23.918;2023-05-07T00:11:45;10.65;;;6.40;;
40591;SDS011;26301;42.832;23.918;2023-05-07T00:14:11;7.53;;;5.43;;
40591;SDS011;26301;42.832;23.918;2023-05-07T00:16:37;8.40;;;5.88;;
40591;SDS011;26301;42.832;23.918;2023-05-07T00:19:03;7.97;;;6.05;;
40591;SDS011;26301;42.832;23.918;2023-05-07T00:21:32;9.75;;;6.43;;
40591;SDS011;26301;42.832;23.918;2023-05-07T00:23:58;7.18;;;5.63;;
40591;SDS011;26301;42.832;23.918;2023-05-07T00:26:24;11.65;;;6.32;;
40591;SDS011;26301;42.832;23.918;2023-05-07T00:28:51;7.65;;;6.18;;
40591;SDS011;26301;42.832;23.918;2023-05-07T00:31:16;6.85;;;6.05;;
40591;SDS011;26301;42.832;23.918;2023-05-07T00:33:42;7.70;;;5.60;;
40591;SDS011;26301;42.832;23.918;2023-05-07T00:36:08;9.93;;;5.75;;
40591;SDS011;26301;42.832;23.918;2023-05-07T00:38:34;10.77;;;6.05;;
40591;SDS011;26301;42.832;23.918;2023-05-07T00:41:00;8.25;;;6.35;;
40591;SDS011;26301;42.832;23.918;2023-05-07T00:43:27;9.85;;;6.25;;
40591;SDS011;26301;42.832;23.918;2023-05-07T00:45:54;9.15;;;6.45;;
40591;SDS011;26301;42.832;23.918;2023-05-07T00:48:21;12.40;;;6.55;;
40591;SDS011;26301;42.832;23.918;2023-05-07T00:50:47;7.60;;;6.15;;
40591;SDS011;26301;42.832;23.918;2023-05-07T00:53:13;8.68;;;6.70;;
40591;SDS011;26301;42.832;23.918;2023-05-07T00:55:39;12.45;;;6.18;;
40591;SDS011;26301;42.832;23.918;2023-05-07T00:58:05;10.40;;;5.78;;
40591;SDS011;26301;42.832;23.918;2023-05-07T01:00:32;10.70;;;5.93;;
40591;SDS011;26301;42.832;23.918;2023-05-07T01:02:57;7.15;;;5.30;;
40591;SDS011;26301;42.832;23.918;2023-05-07T01:05:24;7.50;;;5.40;;
40591;SDS011;26301;42.832;23.918;2023-05-07T01:07:52;9.38;;;5.78;;
40591;SDS011;26301;42.832;23.918;2023-05-07T01:10:22;11.57;;;6.15;;
40591;SDS011;26301;42.832;23.918;2023-05-07T01:12:49;10.05;;;5.80;;
40591;SDS011;26301;42.832;23.918;2023-05-07T01:15:17;9.55;;;5.97;;
40591;SDS011;26301;42.832;23.918;2023-05-07T01:17:46;10.30;;;6.10;;
40591;SDS011;26301;42.832;23.918;2023-05-07T01:20:12;7.43;;;5.65;;
40591;SDS011;26301;42.832;23.918;2023-05-07T01:22:39;7.57;;;5.47;;
40591;SDS011;26301;42.832;23.918;2023-05-07T01:25:06;8.38;;;5.90;;
40591;SDS011;26301;42.832;23.918;2023-05-07T01:27:35;8.55;;;5.82;;
40591;SDS011;26301;42.832;23.918;2023-05-07T01:30:04;7.68;;;6.22;;
40591;SDS011;26301;42.832;23.918;2023-05-07T01:35:15;9.40;;;5.45;;
40591;SDS011;26301;42.832;23.918;2023-05-07T01:37:47;6.63;;;5.63;;
40591;SDS011;26301;42.832;23.918;2023-05-07T01:40:14;9.20;;;5.95;;
40591;SDS011;26301;42.832;23.918;2023-05-07T01:42:41;6.82;;;5.95;;
40591;SDS011;26301;42.832;23.918;2023-05-07T01:45:08;7.00;;;5.88;;
40591;SDS011;26301;42.832;23.918;2023-05-07T01:47:38;7.80;;;5.60;;
40591;SDS011;26301;42.832;23.918;2023-05-07T01:50:05;7.60;;;5.75;;
40591;SDS011;26301;42.832;23.918;2023-05-07T01:52:33;8.23;;;6.63;;
40591;SDS011;26301;42.832;23.918;2023-05-07T01:54:59;9.65;;;6.75;;
40591;SDS011;26301;42.832;23.918;2023-05-07T01:57:29;9.13;;;6.32;;
40591;SDS011;26301;42.832;23.918;2023-05-07T01:59:57;14.57;;;6.40;;
40591;SDS011;26301;42.832;23.918;2023-05-07T02:02:24;9.65;;;6.47;;
40591;SDS011;26301;42.832;23.918;2023-05-07T02:04:49;7.75;;;5.88;;
40591;SDS011;26301;42.832;23.918;2023-05-07T02:07:16;8.77;;;5.93;;
40591;SDS011;26301;42.832;23.918;2023-05-07T02:09:41;8.57;;;6.00;;
40591;SDS011;26301;42.832;23.918;2023-05-07T02:12:07;11.18;;;6.15;;
40591;SDS011;26301;42.832;23.918;2023-05-07T02:14:33;9.88;;;6.32;;
40591;SDS011;26301;42.832;23.918;2023-05-07T02:16:58;8.15;;;5.85;;
40591;SDS011;26301;42.832;23.918;2023-05-07T02:19:24;7.97;;;6.03;;
40591;SDS011;26301;42.832;23.918;2023-05-07T02:21:50;9.35;;;6.18;;
40591;SDS011;26301;42.832;23.918;2023-05-07T02:24:17;10.35;;;6.43;;
40591;SDS011;26301;42.832;23.918;2023-05-07T02:26:43;8.40;;;5.85;;
40591;SDS011;26301;42.832;23.918;2023-05-07T02:29:10;6.80;;;5.68;;
40591;SDS011;26301;42.832;23.918;2023-05-07T02:31:36;6.70;;;5.25;;
40591;SDS011;26301;42.832;23.918;2023-05-07T02:34:01;8.13;;;6.53;;
40591;SDS011;26301;42.832;23.918;2023-05-07T02:36:27;9.55;;;6.35;;
40591;SDS011;26301;42.832;23.918;2023-05-07T02:38:54;9.35;;;7.20;;
40591;SDS011;26301;42.832;23.918;2023-05-07T02:41:20;8.18;;;6.53;;
40591;SDS011;26301;42.832;23.918;2023-05-07T02:43:46;8.68;;;7.22;;
40591;SDS011;26301;42.832;23.918;2023-05-07T02:46:13;8.73;;;6.82;;
40591;SDS011;26301;42.832;23.918;2023-05-07T02:55:22;8.45;;;6.82;;
40591;SDS011;26301;42.832;23.918;2023-05-07T02:57:47;7.43;;;6.30;;
40591;SDS011;26301;42.832;23.918;2023-05-07T03:00:14;11.55;;;6.38;;
40591;SDS011;26301;42.832;23.918;2023-05-07T03:02:41;9.43;;;6.18;;
40591;SDS011;26301;42.832;23.918;2023-05-07T03:05:07;7.57;;;5.78;;
40591;SDS011;26301;42.832;23.918;2023-05-07T03:07:34;7.90;;;6.32;;
40591;SDS011;26301;42.832;23.918;2023-05-07T03:10:04;7.63;;;5.85;;
40591;SDS011;26301;42.832;23.918;2023-05-07T03:12:31;8.13;;;5.80;;
40591;SDS011;26301;42.832;23.918;2023-05-07T03:14:57;9.45;;;7.00;;
40591;SDS011;26301;42.832;23.918;2023-05-07T03:17:23;8.55;;;7.03;;
40591;SDS011;26301;42.832;23.918;2023-05-07T03:19:53;11.88;;;7.50;;
40591;SDS011;26301;42.832;23.918;2023-05-07T03:22:23;9.07;;;7.05;;
40591;SDS011;26301;42.832;23.918;2023-05-07T03:24:54;9.43;;;7.45;;
40591;SDS011;26301;42.832;23.918;2023-05-07T03:27:20;8.10;;;6.63;;
40591;SDS011;26301;42.832;23.918;2023-05-07T03:29:46;11.32;;;6.97;;
40591;SDS011;26301;42.832;23.918;2023-05-07T03:32:12;8.77;;;7.00;;
40591;SDS011;26301;42.832;23.918;2023-05-07T03:34:39;8.45;;;6.88;;
40591;SDS011;26301;42.832;23.918;2023-05-07T03:37:08;8.73;;;6.85;;
40591;SDS011;26301;42.832;23.918;2023-05-07T03:39:35;8.75;;;7.47;;
40591;SDS011;26301;42.832;23.918;2023-05-07T03:42:01;8.88;;;6.40;;
40591;SDS011;26301;42.832;23.918;2023-05-07T03:44:27;7.40;;;6.22;;
40591;SDS011;26301;42.832;23.918;2023-05-07T03:46:54;8.75;;;6.82;;
40591;SDS011;26301;42.832;23.918;2023-05-07T03:49:20;12.27;;;9.65;;
40591;SDS011;26301;42.832;23.918;2023-05-07T03:51:48;10.05;;;7.65;;
40591;SDS011;26301;42.832;23.918;2023-05-07T03:54:14;9.43;;;7.68;;
40591;SDS011;26301;42.832;23.918;2023-05-07T03:56:41;11.85;;;8.38;;
40591;SDS011;26301;42.832;23.918;2023-05-07T03:59:07;11.23;;;8.10;;
40591;SDS011;26301;42.832;23.918;2023-05-07T04:01:33;10.45;;;7.35;;
40591;SDS011;26301;42.832;23.918;2023-05-07T04:03:59;8.65;;;7.15;;
40591;SDS011;26301;42.832;23.918;2023-05-07T04:06:25;11.93;;;7.53;;
40591;SDS011;26301;42.832;23.918;2023-05-07T04:08:51;8.20;;;7.20;;
40591;SDS011;26301;42.832;23.918;2023-05-07T04:11:17;13.48;;;7.22;;
40591;SDS011;26301;42.832;23.918;2023-05-07T04:13:44;9.20;;;7.55;;
40591;SDS011;26301;42.832;23.918;2023-05-07T04:16:10;8.43;;;7.00;;
40591;SDS011;26301;42.832;23.918;2023-05-07T04:18:36;8.98;;;6.18;;
40591;SDS011;26301;42.832;23.918;2023-05-07T04:21:02;9.38;;;6.82;;
40591;SDS011;26301;42.832;23.918;2023-05-07T04:23:28;14.40;;;6.97;;
40591;SDS011;26301;42.832;23.918;2023-05-07T04:25:54;11.80;;;6.20;;
40591;SDS011;26301;42.832;23.918;2023-05-07T04:28:20;9.93;;;5.30;;
40591;SDS011;26301;42.832;23.918;2023-05-07T04:30:46;8.05;;;5.68;;
40591;SDS011;26301;42.832;23.918;2023-05-07T04:33:13;7.10;;;5.32;;
40591;SDS011;26301;42.832;23.918;2023-05-07T04:35:43;7.57;;;5.88;;
40591;SDS011;26301;42.832;23.918;2023-05-07T04:38:08;8.02;;;4.97;;
40591;SDS011;26301;42.832;23.918;2023-05-07T04:40:38;8.15;;;4.65;;
40591;SDS011;26301;42.832;23.918;2023-05-07T04:43:04;6.50;;;4.35;;
40591;SDS011;26301;42.832;23.918;2023-05-07T04:45:30;6.97;;;4.50;;
40591;SDS011;26301;42.832;23.918;2023-05-07T04:47:56;6.82;;;4.78;;
40591;SDS011;26301;42.832;23.918;2023-05-07T04:50:22;9.00;;;5.10;;
40591;SDS011;26301;42.832;23.918;2023-05-07T04:52:49;9.30;;;4.97;;
40591;SDS011;26301;42.832;23.918;2023-05-07T04:55:16;8.13;;;4.60;;
40591;SDS011;26301;42.832;23.918;2023-05-07T04:57:41;5.55;;;4.45;;
40591;SDS011;26301;42.832;23.918;2023-05-07T05:00:08;10.55;;;4.60;;
40591;SDS011;26301;42.832;23.918;2023-05-07T05:02:34;4.95;;;4.15;;
40591;SDS011;26301;42.832;23.918;2023-05-07T05:05:01;8.82;;;3.97;;
40591;SDS011;26301;42.832;23.918;2023-05-07T05:07:27;6.30;;;3.95;;
40591;SDS011;26301;42.832;23.918;2023-05-07T05:09:54;14.05;;;8.05;;
40591;SDS011;26301;42.832;23.918;2023-05-07T05:12:20;11.40;;;7.53;;
40591;SDS011;26301;42.832;23.918;2023-05-07T05:14:47;11.18;;;7.32;;
40591;SDS011;26301;42.832;23.918;2023-05-07T05:17:13;13.25;;;7.90;;
40591;SDS011;26301;42.832;23.918;2023-05-07T05:19:38;13.15;;;7.25;;
40591;SDS011;26301;42.832;23.918;2023-05-07T05:22:05;6.80;;;4.40;;
40591;SDS011;26301;42.832;23.918;2023-05-07T05:24:31;11.60;;;5.03;;
40591;SDS011;26301;42.832;23.918;2023-05-07T05:26:57;5.47;;;4.30;;
40591;SDS011;26301;42.832;23.918;2023-05-07T05:29:26;6.30;;;4.35;;
40591;SDS011;26301;42.832;23.918;2023-05-07T05:31:52;5.38;;;3.75;;
40591;SDS011;26301;42.832;23.918;2023-05-07T05:34:18;7.90;;;3.40;;
40591;SDS011;26301;42.832;23.918;2023-05-07T05:36:48;5.90;;;4.35;;
40591;SDS011;26301;42.832;23.918;2023-05-07T05:39:14;9.45;;;3.90;;
40591;SDS011;26301;42.832;23.918;2023-05-07T05:41:40;7.68;;;4.15;;
40591;SDS011;26301;42.832;23.918;2023-05-07T05:44:07;7.75;;;3.90;;
40591;SDS011;26301;42.832;23.918;2023-05-07T05:46:32;6.28;;;4.07;;
40591;SDS011;26301;42.832;23.918;2023-05-07T05:48:58;5.95;;;4.05;;
40591;SDS011;26301;42.832;23.918;2023-05-07T05:51:24;8.68;;;4.53;;
40591;SDS011;26301;42.832;23.918;2023-05-07T05:53:51;9.15;;;3.63;;
40591;SDS011;26301;42.832;23.918;2023-05-07T05:56:17;4.03;;;3.17;;
40591;SDS011;26301;42.832;23.918;2023-05-07T05:58:44;5.10;;;3.00;;
40591;SDS011;26301;42.832;23.918;2023-05-07T06:01:10;4.63;;;2.97;;
40591;SDS011;26301;42.832;23.918;2023-05-07T06:03:37;5.68;;;3.40;;
40591;SDS011;26301;42.832;23.918;2023-05-07T06:06:04;4.80;;;2.90;;
40591;SDS011;26301;42.832;23.918;2023-05-07T06:08:30;4.57;;;3.33;;
40591;SDS011;26301;42.832;23.918;2023-05-07T06:10:56;6.90;;;3.05;;
40591;SDS011;26301;42.832;23.918;2023-05-07T06:13:23;5.10;;;2.80;;
40591;SDS011;26301;42.832;23.918;2023-05-07T06:16:13;7.10;;;3.20;;
40591;SDS011;26301;42.832;23.918;2023-05-07T06:18:40;6.63;;;2.80;;
40591;SDS011;26301;42.832;23.918;2023-05-07T06:21:19;4.43;;;2.90;;
40591;SDS011;26301;42.832;23.918;2023-05-07T06:23:48;6.13;;;3.75;;
40591;SDS011;26301;42.832;23.918;2023-05-07T06:26:17;5.60;;;2.85;;
40591;SDS011;26301;42.832;23.918;2023-05-07T06:28:51;3.92;;;2.78;;
40591;SDS011;26301;42.832;23.918;2023-05-07T06:31:18;6.60;;;3.33;;
40591;SDS011;26301;42.832;23.918;2023-05-07T06:33:48;4.13;;;2.80;;
40591;SDS011;26301;42.832;23.918;2023-05-07T06:36:16;5.50;;;2.63;;
40591;SDS011;26301;42.832;23.918;2023-05-07T06:38:45;5.13;;;2.40;;
40591;SDS011;26301;42.832;23.918;2023-05-07T06:41:11;5.05;;;3.30;;
40591;SDS011;26301;42.832;23.918;2023-05-07T06:43:43;5.25;;;2.95;;
40591;SDS011;26301;42.832;23.918;2023-05-07T06:46:14;4.80;;;2.97;;
40591;SDS011;26301;42.832;23.918;2023-05-07T06:48:43;6.70;;;2.97;;
40591;SDS011;26301;42.832;23.918;2023-05-07T06:51:17;5.60;;;2.88;;
40591;SDS011;26301;42.832;23.918;2023-05-07T06:53:49;7.38;;;2.92;;
40591;SDS011;26301;42.832;23.918;2023-05-07T06:56:15;4.68;;;3.03;;
40591;SDS011;26301;42.832;23.918;2023-05-07T06:58:56;6.47;;;3.72;;
40591;SDS011;26301;42.832;23.918;2023-05-07T07:01:25;4.28;;;2.40;;
40591;SDS011;26301;42.832;23.918;2023-05-07T07:04:00;4.28;;;2.92;;
40591;SDS011;26301;42.832;23.918;2023-05-07T07:06:29;7.32;;;2.72;;
40591;SDS011;26301;42.832;23.918;2023-05-07T07:09:14;6.95;;;2.80;;
40591;SDS011;26301;42.832;23.918;2023-05-07T07:11:41;5.25;;;2.90;;
40591;SDS011;26301;42.832;23.918;2023-05-07T07:14:10;4.85;;;3.20;;
40591;SDS011;26301;42.832;23.918;2023-05-07T07:16:36;3.92;;;2.90;;
40591;SDS011;26301;42.832;23.918;2023-05-07T07:19:02;5.35;;;3.17;;
40591;SDS011;26301;42.832;23.918;2023-05-07T07:21:28;5.72;;;2.97;;
40591;SDS011;26301;42.832;23.918;2023-05-07T07:23:57;5.07;;;3.03;;
40591;SDS011;26301;42.832;23.918;2023-05-07T07:26:27;11.05;;;3.22;;
40591;SDS011;26301;42.832;23.918;2023-05-07T07:28:53;3.67;;;2.80;;
40591;SDS011;26301;42.832;23.918;2023-05-07T07:31:19;5.85;;;3.22;;
40591;SDS011;26301;42.832;23.918;2023-05-07T07:33:51;5.72;;;3.40;;
40591;SDS011;26301;42.832;23.918;2023-05-07T07:36:17;6.50;;;2.85;;
40591;SDS011;26301;42.832;23.918;2023-05-07T07:38:43;6.18;;;2.60;;
40591;SDS011;26301;42.832;23.918;2023-05-07T07:41:09;3.97;;;2.28;;
40591;SDS011;26301;42.832;23.918;2023-05-07T07:43:36;3.50;;;2.50;;
40591;SDS011;26301;42.832;23.918;2023-05-07T07:46:09;4.35;;;2.40;;
40591;SDS011;26301;42.832;23.918;2023-05-07T07:48:35;4.00;;;2.10;;
40591;SDS011;26301;42.832;23.918;2023-05-07T07:51:02;3.65;;;2.22;;
40591;SDS011;26301;42.832;23.918;2023-05-07T07:53:29;7.57;;;2.63;;
40591;SDS011;26301;42.832;23.918;2023-05-07T07:55:55;6.82;;;2.25;;
40591;SDS011;26301;42.832;23.918;2023-05-07T07:58:23;4.75;;;1.92;;
40591;SDS011;26301;42.832;23.918;2023-05-07T08:00:49;4.22;;;2.10;;
40591;SDS011;26301;42.832;23.918;2023-05-07T08:03:16;4.47;;;2.70;;
40591;SDS011;26301;42.832;23.918;2023-05-07T08:05:42;3.03;;;2.05;;
40591;SDS011;26301;42.832;23.918;2023-05-07T08:08:09;5.85;;;2.20;;
40591;SDS011;26301;42.832;23.918;2023-05-07T08:10:35;6.18;;;2.10;;
40591;SDS011;26301;42.832;23.918;2023-05-07T08:13:04;5.20;;;1.90;;
40591;SDS011;26301;42.832;23.918;2023-05-07T08:15:30;2.65;;;1.55;;
40591;SDS011;26301;42.832;23.918;2023-05-07T08:17:57;3.42;;;1.98;;
40591;SDS011;26301;42.832;23.918;2023-05-07T08:20:27;4.90;;;2.00;;
40591;SDS011;26301;42.832;23.918;2023-05-07T08:22:54;6.00;;;2.30;;
40591;SDS011;26301;42.832;23.918;2023-05-07T08:25:23;5.00;;;1.83;;
40591;SDS011;26301;42.832;23.918;2023-05-07T08:27:50;5.80;;;2.10;;
40591;SDS011;26301;42.832;23.918;2023-05-07T08:30:16;7.78;;;2.05;;
40591;SDS011;26301;42.832;23.918;2023-05-07T08:32:44;7.53;;;2.08;;
40591;SDS011;26301;42.832;23.918;2023-05-07T08:35:10;4.25;;;2.30;;
40591;SDS011;26301;42.832;23.918;2023-05-07T08:37:36;3.30;;;2.30;;
40591;SDS011;26301;42.832;23.918;2023-05-07T08:40:02;4.88;;;2.13;;
40591;SDS011;26301;42.832;23.918;2023-05-07T08:42:29;4.07;;;2.17;;
40591;SDS011;26301;42.832;23.918;2023-05-07T08:44:57;4.95;;;2.20;;
40591;SDS011;26301;42.832;23.918;2023-05-07T08:47:25;3.55;;;2.20;;
40591;SDS011;26301;42.832;23.918;2023-05-07T08:50:02;5.72;;;2.20;;
40591;SDS011;26301;42.832;23.918;2023-05-07T08:52:28;3.30;;;2.20;;
40591;SDS011;26301;42.832;23.918;2023-05-07T08:54:55;5.07;;;2.13;;
40591;SDS011;26301;42.832;23.918;2023-05-07T08:57:22;5.82;;;2.30;;
40591;SDS011;26301;42.832;23.918;2023-05-07T08:59:49;4.97;;;2.13;;
40591;SDS011;26301;42.832;23.918;2023-05-07T09:02:15;8.40;;;2.30;;
40591;SDS011;26301;42.832;23.918;2023-05-07T09:04:41;5.07;;;2.28;;
40591;SDS011;26301;42.832;23.918;2023-05-07T09:07:11;5.15;;;2.00;;
40591;SDS011;26301;42.832;23.918;2023-05-07T09:09:37;3.53;;;2.22;;
40591;SDS011;26301;42.832;23.918;2023-05-07T09:12:03;5.95;;;2.55;;
40591;SDS011;26301;42.832;23.918;2023-05-07T09:14:29;3.38;;;1.80;;
40591;SDS011;26301;42.832;23.918;2023-05-07T09:16:56;4.57;;;2.10;;
40591;SDS011;26301;42.832;23.918;2023-05-07T09:19:25;4.35;;;2.00;;
40591;SDS011;26301;42.832;23.918;2023-05-07T09:22:02;4.75;;;1.98;;
40591;SDS011;26301;42.832;23.918;2023-05-07T09:24:29;3.72;;;2.00;;
40591;SDS011;26301;42.832;23.918;2023-05-07T09:27:00;6.53;;;1.92;;
40591;SDS011;26301;42.832;23.918;2023-05-07T09:29:27;5.82;;;1.98;;
40591;SDS011;26301;42.832;23.918;2023-05-07T09:31:55;2.92;;;1.95;;
40591;SDS011;26301;42.832;23.918;2023-05-07T09:34:21;5.63;;;2.00;;
40591;SDS011;26301;42.832;23.918;2023-05-07T09:36:48;6.85;;;1.92;;
40591;SDS011;26301;42.832;23.918;2023-05-07T09:39:14;3.25;;;1.98;;
40591;SDS011;26301;42.832;23.918;2023-05-07T09:41:45;6.45;;;2.40;;
40591;SDS011;26301;42.832;23.918;2023-05-07T09:44:13;4.55;;;1.98;;
40591;SDS011;26301;42.832;23.918;2023-05-07T09:46:42;3.92;;;2.00;;
40591;SDS011;26301;42.832;23.918;2023-05-07T09:49:16;4.03;;;2.30;;
40591;SDS011;26301;42.832;23.918;2023-05-07T09:51:51;5.32;;;1.95;;
40591;SDS011;26301;42.832;23.918;2023-05-07T09:54:17;3.33;;;1.80;;
40591;SDS011;26301;42.832;23.918;2023-05-07T09:56:44;3.45;;;1.75;;
40591;SDS011;26301;42.832;23.918;2023-05-07T09:59:14;4.40;;;2.20;;
40591;SDS011;26301;42.832;23.918;2023-05-07T10:01:42;4.65;;;1.90;;
40591;SDS011;26301;42.832;23.918;2023-05-07T10:04:12;3.55;;;1.88;;
40591;SDS011;26301;42.832;23.918;2023-05-07T10:06:47;2.42;;;1.90;;
40591;SDS011;26301;42.832;23.918;2023-05-07T10:09:13;4.07;;;1.83;;
40591;SDS011;26301;42.832;23.918;2023-05-07T10:11:40;4.80;;;2.35;;
40591;SDS011;26301;42.832;23.918;2023-05-07T10:14:06;4.72;;;2.13;;
40591;SDS011;26301;42.832;23.918;2023-05-07T10:16:36;4.50;;;2.10;;
40591;SDS011;26301;42.832;23.918;2023-05-07T10:19:09;4.38;;;2.03;;
40591;SDS011;26301;42.832;23.918;2023-05-07T10:21:36;8.43;;;2.22;;
40591;SDS011;26301;42.832;23.918;2023-05-07T10:24:19;3.45;;;1.95;;
40591;SDS011;26301;42.832;23.918;2023-05-07T10:26:51;2.90;;;1.95;;
40591;SDS011;26301;42.832;23.918;2023-05-07T10:29:21;6.22;;;2.33;;
40591;SDS011;26301;42.832;23.918;2023-05-07T10:34:56;9.07;;;2.88;;
40591;SDS011;26301;42.832;23.918;2023-05-07T10:37:24;11.45;;;2.05;;
40591;SDS011;26301;42.832;23.918;2023-05-07T10:39:51;3.60;;;1.85;;
40591;SDS011;26301;42.832;23.918;2023-05-07T10:42:17;6.60;;;2.53;;
40591;SDS011;26301;42.832;23.918;2023-05-07T10:44:46;3.75;;;1.90;;
40591;SDS011;26301;42.832;23.918;2023-05-07T10:47:13;3.80;;;1.92;;
40591;SDS011;26301;42.832;23.918;2023-05-07T10:52:11;4.93;;;2.20;;
40591;SDS011;26301;42.832;23.918;2023-05-07T10:54:43;3.55;;;2.30;;
40591;SDS011;26301;42.832;23.918;2023-05-07T10:59:54;3.28;;;1.88;;
40591;SDS011;26301;42.832;23.918;2023-05-07T11:02:20;5.47;;;2.00;;
40591;SDS011;26301;42.832;23.918;2023-05-07T11:04:57;2.70;;;1.75;;
40591;SDS011;26301;42.832;23.918;2023-05-07T11:07:54;13.10;;;4.03;;
40591;SDS011;26301;42.832;23.918;2023-05-07T11:13:15;4.28;;;2.47;;
40591;SDS011;26301;42.832;23.918;2023-05-07T11:15:44;27.08;;;12.55;;
40591;SDS011;26301;42.832;23.918;2023-05-07T11:18:11;13.27;;;6.20;;
40591;SDS011;26301;42.832;23.918;2023-05-07T11:20:46;6.07;;;2.10;;
40591;SDS011;26301;42.832;23.918;2023-05-07T11:25:59;4.20;;;1.93;;
40591;SDS011;26301;42.832;23.918;2023-05-07T11:28:27;6.28;;;2.15;;
40591;SDS011;26301;42.832;23.918;2023-05-07T11:30:53;6.65;;;2.00;;
40591;SDS011;26301;42.832;23.918;2023-05-07T11:33:19;5.00;;;1.90;;
40591;SDS011;26301;42.832;23.918;2023-05-07T11:38:20;3.03;;;1.98;;
40591;SDS011;26301;42.832;23.918;2023-05-07T11:40:54;2.55;;;1.60;;
40591;SDS011;26301;42.832;23.918;2023-05-07T11:43:21;3.33;;;1.83;;
40591;SDS011;26301;42.832;23.918;2023-05-07T11:45:48;4.00;;;2.25;;
40591;SDS011;26301;42.832;23.918;2023-05-07T11:48:16;5.00;;;2.20;;
40591;SDS011;26301;42.832;23.918;2023-05-07T11:53:27;2.85;;;1.90;;
40591;SDS011;26301;42.832;23.918;2023-05-07T11:56:00;7.55;;;2.10;;
40591;SDS011;26301;42.832;23.918;2023-05-07T11:58:32;4.85;;;1.98;;
40591;SDS011;26301;42.832;23.918;2023-05-07T12:00:59;2.28;;;1.60;;
40591;SDS011;26301;42.832;23.918;2023-05-07T12:03:25;5.97;;;2.00;;
40591;SDS011;26301;42.832;23.918;2023-05-07T12:05:51;6.72;;;2.50;;
40591;SDS011;26301;42.832;23.918;2023-05-07T12:08:17;2.95;;;1.85;;
40591;SDS011;26301;42.832;23.918;2023-05-07T12:10:46;2.65;;;1.95;;
40591;SDS011;26301;42.832;23.918;2023-05-07T12:13:29;2.40;;;1.95;;
40591;SDS011;26301;42.832;23.918;2023-05-07T12:15:56;3.95;;;1.90;;
40591;SDS011;26301;42.832;23.918;2023-05-07T12:18:22;8.27;;;6.50;;
40591;SDS011;26301;42.832;23.918;2023-05-07T12:20:48;9.60;;;7.88;;
40591;SDS011;26301;42.832;23.918;2023-05-07T12:23:15;11.00;;;2.15;;
40591;SDS011;26301;42.832;23.918;2023-05-07T12:25:43;4.55;;;2.50;;
40591;SDS011;26301;42.832;23.918;2023-05-07T12:28:28;5.10;;;2.42;;
40591;SDS011;26301;42.832;23.918;2023-05-07T12:30:55;3.42;;;2.13;;
40591;SDS011;26301;42.832;23.918;2023-05-07T12:33:26;5.85;;;2.22;;
40591;SDS011;26301;42.832;23.918;2023-05-07T12:35:54;2.58;;;1.80;;
40591;SDS011;26301;42.832;23.918;2023-05-07T12:38:21;6.28;;;2.55;;
40591;SDS011;26301;42.832;23.918;2023-05-07T12:40:48;5.72;;;2.35;;
40591;SDS011;26301;42.832;23.918;2023-05-07T12:43:20;4.82;;;2.13;;
40591;SDS011;26301;42.832;23.918;2023-05-07T12:45:48;7.07;;;2.08;;
40591;SDS011;26301;42.832;23.918;2023-05-07T12:48:16;4.35;;;2.13;;
40591;SDS011;26301;42.832;23.918;2023-05-07T12:50:42;7.03;;;2.30;;
40591;SDS011;26301;42.832;23.918;2023-05-07T12:53:09;6.35;;;2.20;;
40591;SDS011;26301;42.832;23.918;2023-05-07T12:55:43;4.93;;;2.00;;
40591;SDS011;26301;42.832;23.918;2023-05-07T12:58:14;6.63;;;2.25;;
40591;SDS011;26301;42.832;23.918;2023-05-07T13:00:46;6.50;;;2.25;;
40591;SDS011;26301;42.832;23.918;2023-05-07T13:03:20;3.67;;;2.00;;
40591;SDS011;26301;42.832;23.918;2023-05-07T13:05:48;9.00;;;2.40;;
40591;SDS011;26301;42.832;23.918;2023-05-07T13:08:24;5.63;;;2.10;;
40591;SDS011;26301;42.832;23.918;2023-05-07T13:11:04;3.72;;;2.22;;
40591;SDS011;26301;42.832;23.918;2023-05-07T13:13:30;2.90;;;2.03;;
40591;SDS011;26301;42.832;23.918;2023-05-07T13:15:57;6.03;;;2.20;;
40591;SDS011;26301;42.832;23.918;2023-05-07T13:18:24;6.65;;;3.20;;
40591;SDS011;26301;42.832;23.918;2023-05-07T13:20:51;15.82;;;5.40;;
40591;SDS011;26301;42.832;23.918;2023-05-07T13:23:18;11.15;;;3.03;;
40591;SDS011;26301;42.832;23.918;2023-05-07T13:25:44;4.00;;;2.78;;
40591;SDS011;26301;42.832;23.918;2023-05-07T13:28:11;13.00;;;2.40;;
40591;SDS011;26301;42.832;23.918;2023-05-07T13:30:40;5.45;;;2.40;;
40591;SDS011;26301;42.832;23.918;2023-05-07T13:33:07;5.55;;;3.10;;
40591;SDS011;26301;42.832;23.918;2023-05-07T13:35:36;18.25;;;16.40;;
40591;SDS011;26301;42.832;23.918;2023-05-07T13:38:04;8.98;;;2.28;;
40591;SDS011;26301;42.832;23.918;2023-05-07T13:40:30;154.15;;;133.63;;
40591;SDS011;26301;42.832;23.918;2023-05-07T13:42:57;128.75;;;116.28;;
40591;SDS011;26301;42.832;23.918;2023-05-07T13:45:27;55.67;;;50.47;;
40591;SDS011;26301;42.832;23.918;2023-05-07T13:47:56;14.50;;;12.95;;
40591;SDS011;26301;42.832;23.918;2023-05-07T13:50:23;12.43;;;8.00;;
40591;SDS011;26301;42.832;23.918;2023-05-07T13:52:49;7.93;;;3.88;;
40591;SDS011;26301;42.832;23.918;2023-05-07T13:55:24;5.53;;;2.20;;
40591;SDS011;26301;42.832;23.918;2023-05-07T13:57:56;4.53;;;2.50;;
40591;SDS011;26301;42.832;23.918;2023-05-07T14:00:25;10.13;;;5.45;;
40591;SDS011;26301;42.832;23.918;2023-05-07T14:02:52;6.68;;;3.35;;
40591;SDS011;26301;42.832;23.918;2023-05-07T14:05:23;10.80;;;5.32;;
40591;SDS011;26301;42.832;23.918;2023-05-07T14:07:50;4.93;;;2.80;;
40591;SDS011;26301;42.832;23.918;2023-05-07T14:10:19;6.53;;;2.40;;
40591;SDS011;26301;42.832;23.918;2023-05-07T14:12:46;76.10;;;24.80;;
40591;SDS011;26301;42.832;23.918;2023-05-07T14:15:12;13.45;;;7.22;;
40591;SDS011;26301;42.832;23.918;2023-05-07T14:17:38;24.65;;;8.35;;
40591;SDS011;26301;42.832;23.918;2023-05-07T14:20:05;9.05;;;4.07;;
40591;SDS011;26301;42.832;23.918;2023-05-07T14:22:33;4.75;;;2.53;;
40591;SDS011;26301;42.832;23.918;2023-05-07T14:25:01;17.70;;;3.70;;
40591;SDS011;26301;42.832;23.918;2023-05-07T14:27:28;15.60;;;6.93;;
40591;SDS011;26301;42.832;23.918;2023-05-07T14:29:55;30.17;;;12.50;;
40591;SDS011;26301;42.832;23.918;2023-05-07T14:32:23;26.25;;;11.00;;
40591;SDS011;26301;42.832;23.918;2023-05-07T14:34:49;119.88;;;41.15;;
40591;SDS011;26301;42.832;23.918;2023-05-07T14:37:18;18.75;;;8.13;;
40591;SDS011;26301;42.832;23.918;2023-05-07T14:39:45;16.42;;;6.93;;
40591;SDS011;26301;42.832;23.918;2023-05-07T14:42:10;19.20;;;8.38;;
40591;SDS011;26301;42.832;23.918;2023-05-07T14:44:37;5.75;;;2.80;;
40591;SDS011;26301;42.832;23.918;2023-05-07T14:47:13;8.90;;;7.28;;
40591;SDS011;26301;42.832;23.918;2023-05-07T14:49:40;3.75;;;2.63;;
40591;SDS011;26301;42.832;23.918;2023-05-07T14:52:07;4.25;;;2.40;;
40591;SDS011;26301;42.832;23.918;2023-05-07T14:54:36;4.15;;;2.30;;
40591;SDS011;26301;42.832;23.918;2023-05-07T14:57:08;9.30;;;4.40;;
40591;SDS011;26301;42.832;23.918;2023-05-07T14:59:35;7.15;;;2.22;;
40591;SDS011;26301;42.832;23.918;2023-05-07T15:02:01;14.55;;;5.90;;
40591;SDS011;26301;42.832;23.918;2023-05-07T15:04:27;6.68;;;3.70;;